createdAt,value
2022-09-01T00:01:06.593Z,15.18
2022-09-01T00:03:39.560Z,15.17
2022-09-01T00:06:11.758Z,15.13
2022-09-01T00:08:43.679Z,15.06
2022-09-01T00:11:15.569Z,15.03
2022-09-01T00:13:48.525Z,15.01
2022-09-01T00:16:21.771Z,14.96
2022-09-01T00:18:55.500Z,14.93
2022-09-01T00:21:30.527Z,14.92
2022-09-01T00:24:03.692Z,14.90
2022-09-01T00:26:35.661Z,14.87
2022-09-01T00:29:08.210Z,14.83
2022-09-01T00:31:40.433Z,14.79
2022-09-01T00:34:12.744Z,14.73
2022-09-01T00:36:45.145Z,14.69
2022-09-01T00:39:19.407Z,14.65
2022-09-01T00:41:51.419Z,14.60
2022-09-01T00:44:26.904Z,14.54
2022-09-01T00:47:01.955Z,14.47
2022-09-01T00:49:37.781Z,14.42
2022-09-01T00:52:14.868Z,14.37
2022-09-01T00:54:50.433Z,14.30
2022-09-01T00:57:23.037Z,14.23
2022-09-01T00:59:59.004Z,14.18
2022-09-01T01:02:31.417Z,14.12
2022-09-01T01:05:03.483Z,14.08
2022-09-01T01:07:38.885Z,14.05
2022-09-01T01:10:13.182Z,14.01
2022-09-01T01:12:46.091Z,14.00
2022-09-01T01:15:18.747Z,13.98
2022-09-01T01:17:50.616Z,13.96
2022-09-01T01:20:45.694Z,13.94
2022-09-01T01:23:22.909Z,13.91
2022-09-01T01:25:59.083Z,13.87
2022-09-01T01:28:36.192Z,13.82
2022-09-01T01:31:12.145Z,13.78
2022-09-01T01:33:46.853Z,13.75
2022-09-01T01:36:24.913Z,13.70
2022-09-01T01:39:02.817Z,13.68
2022-09-01T01:41:37.544Z,13.64
2022-09-01T01:44:09.738Z,13.58
2022-09-01T01:46:45.010Z,13.54
2022-09-01T01:49:20.045Z,13.49
2022-09-01T01:51:56.157Z,13.42
2022-09-01T01:54:32.772Z,13.35
2022-09-01T01:57:05.277Z,13.28
2022-09-01T01:59:38.844Z,13.23
2022-09-01T02:02:12.997Z,13.20
2022-09-01T02:04:45.008Z,13.18
2022-09-01T02:07:16.964Z,13.14
2022-09-01T02:09:48.990Z,13.10
2022-09-01T02:12:21.348Z,13.08
2022-09-01T02:14:54.922Z,13.06
2022-09-01T02:17:27.992Z,13.03
2022-09-01T02:20:00.033Z,12.97
2022-09-01T02:22:32.021Z,12.93
2022-09-01T02:25:03.954Z,12.90
2022-09-01T02:27:36.853Z,12.89
2022-09-01T02:30:12.871Z,12.86
2022-09-01T02:32:44.997Z,12.82
2022-09-01T02:35:16.907Z,12.78
2022-09-01T02:37:56.533Z,12.77
2022-09-01T02:40:30.557Z,12.71
2022-09-01T02:43:03.863Z,12.68
2022-09-01T02:45:36.070Z,12.64
2022-09-01T02:48:09.845Z,12.61
2022-09-01T02:50:43.501Z,12.59
2022-09-01T02:53:15.586Z,12.55
2022-09-01T02:55:48.519Z,12.49
2022-09-01T02:58:21.559Z,12.42
2022-09-01T03:00:58.652Z,12.38
2022-09-01T03:03:30.810Z,12.33
2022-09-01T03:06:02.859Z,12.26
2022-09-01T03:08:39.651Z,12.23
2022-09-01T03:11:13.395Z,12.20
2022-09-01T03:13:46.155Z,12.18
2022-09-01T03:16:19.165Z,12.16
2022-09-01T03:18:51.950Z,12.16
2022-09-01T03:21:24.666Z,12.16
2022-09-01T03:23:58.313Z,12.18
2022-09-01T03:26:31.147Z,12.19
2022-09-01T03:29:04.450Z,12.18
2022-09-01T03:31:36.587Z,12.18
2022-09-01T03:34:11.081Z,12.19
2022-09-01T03:36:50.543Z,12.18
2022-09-01T03:39:33.437Z,12.17
2022-09-01T03:42:08.755Z,12.16
2022-09-01T03:44:42.934Z,12.14
2022-09-01T03:47:15.472Z,12.13
2022-09-01T03:49:49.272Z,12.10
2022-09-01T03:52:24.059Z,12.08
2022-09-01T03:54:56.118Z,12.06
2022-09-01T03:57:29.852Z,12.05
2022-09-01T04:00:20.426Z,12.05
2022-09-01T04:02:57.611Z,12.04
2022-09-01T04:05:33.953Z,12.03
2022-09-01T04:08:10.973Z,12.02
2022-09-01T04:10:51.135Z,12.06
2022-09-01T04:13:30.389Z,12.07
2022-09-01T04:16:02.862Z,12.08
2022-09-01T04:18:35.090Z,12.08
2022-09-01T04:21:09.032Z,12.10
2022-09-01T04:23:41.141Z,12.14
2022-09-01T04:26:15.692Z,12.35
2022-09-01T04:28:50.915Z,12.73
2022-09-01T04:31:24.230Z,13.16
2022-09-01T04:33:56.743Z,13.61
2022-09-01T04:36:34.202Z,14.14
2022-09-01T04:39:09.550Z,14.75
2022-09-01T04:41:46.175Z,15.35
2022-09-01T04:44:19.198Z,15.98
2022-09-01T04:46:51.653Z,16.65
2022-09-01T04:49:26.471Z,17.37
2022-09-01T04:51:58.531Z,18.07
2022-09-01T04:54:35.037Z,18.81
2022-09-01T04:57:07.127Z,19.63
2022-09-01T04:59:43.289Z,20.29
2022-09-01T05:02:15.286Z,20.90
2022-09-01T05:04:47.283Z,21.44
2022-09-01T05:07:20.163Z,21.90
2022-09-01T05:09:57.992Z,22.40
2022-09-01T05:12:53.325Z,23.07
2022-09-01T05:15:25.474Z,23.61
2022-09-01T05:18:02.385Z,24.19
2022-09-01T05:20:35.340Z,24.75
2022-09-01T05:23:07.999Z,25.35
2022-09-01T05:25:44.041Z,25.89
2022-09-01T05:28:18.812Z,26.56
2022-09-01T05:30:54.140Z,27.16
2022-09-01T05:33:26.167Z,27.64
2022-09-01T05:36:01.304Z,28.20
2022-09-01T05:38:34.037Z,28.78
2022-09-01T05:41:08.791Z,29.39
2022-09-01T05:43:45.409Z,29.93
2022-09-01T05:46:20.750Z,30.49
2022-09-01T05:48:55.241Z,30.90
2022-09-01T05:51:44.312Z,31.22
2022-09-01T05:54:18.637Z,31.59
2022-09-01T05:56:53.633Z,31.90
2022-09-01T05:59:31.692Z,32.14
2022-09-01T06:02:09.082Z,32.46
2022-09-01T06:04:44.303Z,32.85
2022-09-01T06:07:25.225Z,33.16
2022-09-01T06:09:59.940Z,33.67
2022-09-01T06:12:32.271Z,34.00
2022-09-01T06:15:07.417Z,34.28
2022-09-01T06:17:39.795Z,34.48
2022-09-01T06:20:12.908Z,34.60
2022-09-01T06:22:47.738Z,34.63
2022-09-01T06:25:21.816Z,34.82
2022-09-01T06:27:54.182Z,35.12
2022-09-01T06:30:26.858Z,35.44
2022-09-01T06:33:09.450Z,35.79
2022-09-01T06:35:44.897Z,35.84
2022-09-01T06:38:19.461Z,36.04
2022-09-01T06:41:00.561Z,36.39
2022-09-01T06:43:33.572Z,36.71
2022-09-01T06:46:05.878Z,36.96
2022-09-01T06:48:38.726Z,37.08
2022-09-01T06:51:16.027Z,37.31
2022-09-01T06:53:56.803Z,37.68
2022-09-01T06:56:34.113Z,38.07
2022-09-01T06:59:15.761Z,38.35
2022-09-01T07:02:01.513Z,38.59
2022-09-01T07:04:49.028Z,38.82
2022-09-01T07:10:33.367Z,39.34
2022-09-01T07:13:22.486Z,39.30
2022-09-01T07:18:59.813Z,38.80
2022-09-01T07:24:31.612Z,38.01
2022-09-01T07:27:35.562Z,37.94
2022-09-01T07:30:12.030Z,37.65
2022-09-01T07:32:47.521Z,37.75
2022-09-01T07:35:22.560Z,37.89
2022-09-01T07:42:58.861Z,38.35
2022-09-01T07:44:10.353Z,38.31
2022-09-01T07:50:24.062Z,38.28
2022-09-01T07:52:44.170Z,38.11
2022-09-01T07:55:18.261Z,37.99
2022-09-01T07:57:52.178Z,38.13
2022-09-01T08:00:24.436Z,38.31
2022-09-01T08:03:02.750Z,38.30
2022-09-01T08:05:36.239Z,38.13
2022-09-01T08:08:27.933Z,37.82
2022-09-01T08:11:07.604Z,37.78
2022-09-01T08:13:41.880Z,37.16
2022-09-01T08:16:17.084Z,36.25
2022-09-01T08:18:51.287Z,35.61
2022-09-01T08:21:35.468Z,34.59
2022-09-01T08:24:09.238Z,33.69
2022-09-01T08:26:41.695Z,32.76
2022-09-01T08:29:13.830Z,31.60
2022-09-01T08:31:49.221Z,30.51
2022-09-01T08:34:21.259Z,29.47
2022-09-01T08:36:53.628Z,28.44
2022-09-01T08:39:26.645Z,27.63
2022-09-01T08:42:06.808Z,26.91
2022-09-01T08:44:47.771Z,26.26
2022-09-01T08:47:35.570Z,25.70
2022-09-01T08:50:12.539Z,25.70
2022-09-01T08:53:12.133Z,26.03
2022-09-01T08:55:47.464Z,26.48
2022-09-01T08:58:20.651Z,27.14
2022-09-01T09:01:21.917Z,27.75
2022-09-01T09:04:08.682Z,28.33
2022-09-01T09:06:49.462Z,29.12
2022-09-01T09:09:32.322Z,29.79
2022-09-01T09:12:26.532Z,30.43
2022-09-01T09:15:12.260Z,30.73
2022-09-01T09:17:56.061Z,30.74
2022-09-01T09:20:31.965Z,31.11
2022-09-01T09:23:20.138Z,31.05
2022-09-01T09:25:52.245Z,30.67
2022-09-01T09:28:24.498Z,30.02
2022-09-01T09:31:28.669Z,29.46
2022-09-01T09:34:02.434Z,28.88
2022-09-01T09:36:37.329Z,28.49
2022-09-01T09:39:13.645Z,28.08
2022-09-01T09:42:02.640Z,27.79
2022-09-01T09:44:36.278Z,27.70
2022-09-01T09:47:33.407Z,27.78
2022-09-01T09:50:16.964Z,28.00
2022-09-01T09:52:50.168Z,28.40
2022-09-01T09:55:28.469Z,28.50
2022-09-01T09:58:02.873Z,28.47
2022-09-01T10:00:36.790Z,28.23
2022-09-01T10:03:12.560Z,27.93
2022-09-01T10:05:48.413Z,27.93
2022-09-01T10:08:45.430Z,28.22
2022-09-01T10:11:36.012Z,28.78
2022-09-01T10:14:51.808Z,29.26
2022-09-01T10:17:17.269Z,29.47
2022-09-01T10:19:54.287Z,29.43
2022-09-01T10:22:27.808Z,29.57
2022-09-01T10:25:00.737Z,29.68
2022-09-01T10:27:37.051Z,29.84
2022-09-01T10:30:19.256Z,30.04
2022-09-01T10:32:55.938Z,29.97
2022-09-01T10:35:32.291Z,29.83
2022-09-01T10:38:12.007Z,29.84
2022-09-01T10:40:50.058Z,29.85
2022-09-01T10:43:41.499Z,29.90
2022-09-01T10:46:50.399Z,29.97
2022-09-01T10:49:50.392Z,29.58
2022-09-01T10:52:58.404Z,29.09
2022-09-01T10:55:36.671Z,28.97
2022-09-01T11:02:35.001Z,28.66
2022-09-01T11:05:17.243Z,28.60
2022-09-01T11:08:15.170Z,28.48
2022-09-01T11:10:54.366Z,28.33
2022-09-01T11:13:46.291Z,28.12
2022-09-01T11:16:47.275Z,28.01
2022-09-01T11:19:34.183Z,28.11
2022-09-01T11:22:17.537Z,28.17
2022-09-01T11:25:40.774Z,28.13
2022-09-01T11:28:41.786Z,27.77
2022-09-01T11:31:41.989Z,27.76
2022-09-01T11:34:17.670Z,27.51
2022-09-01T11:36:56.173Z,27.15
2022-09-01T11:39:49.980Z,27.18
2022-09-01T11:42:27.861Z,27.19
2022-09-01T11:45:04.503Z,26.88
2022-09-01T11:47:41.596Z,26.61
2022-09-01T11:50:22.359Z,26.48
2022-09-01T11:53:04.990Z,26.49
2022-09-01T11:55:40.113Z,26.36
2022-09-01T11:58:17.957Z,26.11
2022-09-01T12:00:50.577Z,25.93
2022-09-01T12:03:27.151Z,25.92
2022-09-01T12:06:03.036Z,25.97
2022-09-01T12:08:37.899Z,26.00
2022-09-01T12:11:12.462Z,25.97
2022-09-01T12:13:55.897Z,26.02
2022-09-01T12:16:29.201Z,26.05
2022-09-01T12:19:02.201Z,26.11
2022-09-01T12:21:38.277Z,26.05
2022-09-01T12:24:19.740Z,25.98
2022-09-01T12:26:55.901Z,25.86
2022-09-01T12:29:32.043Z,25.69
2022-09-01T12:32:05.843Z,25.46
2022-09-01T12:34:44.335Z,25.17
2022-09-01T12:37:26.488Z,24.82
2022-09-01T12:40:00.371Z,24.57
2022-09-01T12:42:41.096Z,24.48
2022-09-01T12:45:36.182Z,24.55
2022-09-01T12:48:08.543Z,24.63
2022-09-01T12:50:47.075Z,24.68
2022-09-01T12:53:30.365Z,24.71
2022-09-01T12:56:17.277Z,24.76
2022-09-01T12:58:54.921Z,24.96
2022-09-01T13:01:33.638Z,25.17
2022-09-01T13:04:15.949Z,25.35
2022-09-01T13:06:48.650Z,25.42
2022-09-01T13:09:21.863Z,25.42
2022-09-01T13:12:09.182Z,25.47
2022-09-01T13:14:41.133Z,25.51
2022-09-01T13:17:14.676Z,25.49
2022-09-01T13:19:46.978Z,25.36
2022-09-01T13:22:19.356Z,25.14
2022-09-01T13:25:22.752Z,24.91
2022-09-01T13:28:16.412Z,24.61
2022-09-01T13:34:10.408Z,24.13
2022-09-01T13:36:47.420Z,23.95
2022-09-01T13:39:22.987Z,23.77
2022-09-01T13:41:54.958Z,23.64
2022-09-01T13:44:26.866Z,23.52
2022-09-01T13:46:59.462Z,23.40
2022-09-01T13:52:24.255Z,23.05
2022-09-01T13:54:56.346Z,23.00
2022-09-01T13:57:35.882Z,23.01
2022-09-01T14:00:15.751Z,23.00
2022-09-01T14:02:50.285Z,22.97
2022-09-01T14:05:25.107Z,22.88
2022-09-01T14:07:58.606Z,22.85
2022-09-01T14:10:31.993Z,22.84
2022-09-01T14:13:04.322Z,22.80
2022-09-01T14:15:37.079Z,22.74
2022-09-01T14:18:09.870Z,22.69
2022-09-01T14:20:49.920Z,22.62
2022-09-01T14:23:22.423Z,22.54
2022-09-01T14:25:54.440Z,22.48
2022-09-01T14:28:26.695Z,22.45
2022-09-01T14:33:31.585Z,22.47
2022-09-01T14:36:04.436Z,22.50
2022-09-01T14:38:36.675Z,22.51
2022-09-01T14:41:08.844Z,22.52
2022-09-01T14:43:43.015Z,22.51
2022-09-01T14:46:16.550Z,22.42
2022-09-01T14:48:50.830Z,22.33
2022-09-01T14:51:26.184Z,22.32
2022-09-01T14:53:58.816Z,22.34
2022-09-01T14:56:30.926Z,22.36
2022-09-01T14:59:02.875Z,22.35
2022-09-01T15:01:35.306Z,22.33
2022-09-01T15:04:07.328Z,22.27
2022-09-01T15:06:39.326Z,22.22
2022-09-01T15:09:13.324Z,22.19
2022-09-01T15:11:48.341Z,22.16
2022-09-01T15:14:20.637Z,22.11
2022-09-01T15:16:52.648Z,22.07
2022-09-01T15:19:25.019Z,22.06
2022-09-01T15:21:57.370Z,22.07
2022-09-01T15:24:29.470Z,22.02
2022-09-01T15:27:01.454Z,22.02
2022-09-01T15:29:34.316Z,22.02
2022-09-01T15:32:07.040Z,21.99
2022-09-01T15:34:39.061Z,22.01
2022-09-01T15:37:11.297Z,22.00
2022-09-01T15:39:43.278Z,21.96
2022-09-01T15:44:52.525Z,21.87
2022-09-01T15:47:24.425Z,21.79
2022-09-01T15:49:56.357Z,21.71
2022-09-01T15:52:30.319Z,21.64
2022-09-01T15:55:03.813Z,21.56
2022-09-01T15:57:36.140Z,21.47
2022-09-01T16:00:13.294Z,21.39
2022-09-01T16:02:45.320Z,21.28
2022-09-01T16:05:17.906Z,21.16
2022-09-01T16:07:51.131Z,21.05
2022-09-01T16:10:24.176Z,20.98
2022-09-01T16:12:57.214Z,20.93
2022-09-01T16:15:29.816Z,20.86
2022-09-01T16:18:16.428Z,20.78
2022-09-01T16:20:56.419Z,20.71
2022-09-01T16:23:35.636Z,20.65
2022-09-01T16:26:08.009Z,20.58
2022-09-01T16:28:43.798Z,20.53
2022-09-01T16:31:19.140Z,20.46
2022-09-01T16:33:54.377Z,20.39
2022-09-01T16:36:38.157Z,20.35
2022-09-01T16:39:18.496Z,20.32
2022-09-01T16:42:01.244Z,20.27
2022-09-01T16:44:47.767Z,20.24
2022-09-01T16:47:34.558Z,20.19
2022-09-01T16:50:16.310Z,20.11
2022-09-01T16:53:04.153Z,20.05
2022-09-01T16:55:49.024Z,20.00
2022-09-01T16:58:29.210Z,19.93
2022-09-01T17:01:17.276Z,19.86
2022-09-01T17:03:58.005Z,19.78
2022-09-01T17:06:35.320Z,19.69
2022-09-01T17:09:16.559Z,19.60
2022-09-01T17:11:53.930Z,19.52
2022-09-01T17:14:39.129Z,19.42
2022-09-01T17:17:15.789Z,19.29
2022-09-01T17:19:52.137Z,19.19
2022-09-01T17:22:24.459Z,19.10
2022-09-01T17:27:40.177Z,18.94
2022-09-01T17:30:13.506Z,18.86
2022-09-01T17:33:17.454Z,18.79
2022-09-01T17:36:04.786Z,18.70
2022-09-01T17:38:54.411Z,18.63
2022-09-01T17:41:36.335Z,18.51
2022-09-01T17:44:21.219Z,18.43
2022-09-01T17:47:00.098Z,18.33
2022-09-01T17:49:40.013Z,18.25
2022-09-01T17:52:20.750Z,18.15
2022-09-01T17:54:59.747Z,18.07
2022-09-01T17:57:38.949Z,18.00
2022-09-01T18:00:23.046Z,17.93
2022-09-01T18:03:19.176Z,17.87
2022-09-01T18:06:03.211Z,17.80
2022-09-01T18:08:41.979Z,17.75
2022-09-01T18:11:18.206Z,17.71
2022-09-01T18:13:54.424Z,17.65
2022-09-01T18:16:30.740Z,17.58
2022-09-01T18:19:10.442Z,17.50
2022-09-01T18:21:50.906Z,17.44
2022-09-01T18:24:30.139Z,17.41
2022-09-01T18:27:02.759Z,17.36
2022-09-01T18:29:36.615Z,17.31
2022-09-01T18:32:33.348Z,17.27
2022-09-01T18:35:32.626Z,17.22
2022-09-01T18:38:16.009Z,17.16
2022-09-01T18:41:03.701Z,17.10
2022-09-01T18:43:42.962Z,17.05
2022-09-01T18:46:24.069Z,17.02
2022-09-01T18:49:04.590Z,16.97
2022-09-01T18:51:53.493Z,16.94
2022-09-01T18:54:34.622Z,16.88
2022-09-01T18:57:08.886Z,16.84
2022-09-01T19:00:17.758Z,16.82
2022-09-01T19:03:16.094Z,16.78
2022-09-01T19:06:02.449Z,16.73
2022-09-01T19:08:47.812Z,16.71
2022-09-01T19:11:33.397Z,16.68
2022-09-01T19:14:12.214Z,16.64
2022-09-01T19:16:56.801Z,16.60
2022-09-01T19:19:43.687Z,16.56
2022-09-01T19:22:20.375Z,16.52
2022-09-01T19:25:19.325Z,16.47
2022-09-01T19:27:58.057Z,16.42
2022-09-01T19:30:35.365Z,16.37
2022-09-01T19:33:09.041Z,16.32
2022-09-01T19:35:44.097Z,16.26
2022-09-01T19:38:23.838Z,16.21
2022-09-01T19:41:00.010Z,16.18
2022-09-01T19:43:38.682Z,16.12
2022-09-01T19:46:22.396Z,16.07
2022-09-01T19:48:59.552Z,16.01
2022-09-01T19:51:35.861Z,15.96
2022-09-01T19:54:16.231Z,15.91
2022-09-01T19:56:55.694Z,15.87
2022-09-01T19:59:32.273Z,15.82
2022-09-01T20:02:10.766Z,15.80
2022-09-01T20:04:53.536Z,15.76
2022-09-01T20:07:37.322Z,15.71
2022-09-01T20:10:23.418Z,15.66
2022-09-01T20:13:07.901Z,15.61
2022-09-01T20:15:45.394Z,15.56
2022-09-01T20:18:26.897Z,15.51
2022-09-01T20:21:03.659Z,15.45
2022-09-01T20:23:42.998Z,15.40
2022-09-01T20:26:22.268Z,15.35
2022-09-01T20:29:00.752Z,15.29
2022-09-01T20:31:35.262Z,15.24
2022-09-01T20:34:15.295Z,15.18
2022-09-01T20:36:50.643Z,15.16
2022-09-01T20:39:50.115Z,15.11
2022-09-01T20:42:31.317Z,15.09
2022-09-01T20:45:10.884Z,15.03
2022-09-01T20:47:49.880Z,14.96
2022-09-01T20:50:26.782Z,14.89
2022-09-01T20:53:20.686Z,14.84
2022-09-01T20:55:58.959Z,14.79
2022-09-01T20:58:43.143Z,14.76
2022-09-01T21:01:21.825Z,14.74
2022-09-01T21:04:06.042Z,14.71
2022-09-01T21:06:51.698Z,14.68
2022-09-01T21:09:32.538Z,14.64
2022-09-01T21:12:11.304Z,14.59
2022-09-01T21:14:55.481Z,14.55
2022-09-01T21:17:43.824Z,14.51
2022-09-01T21:20:23.171Z,14.48
2022-09-01T21:22:57.582Z,14.44
2022-09-01T21:25:29.582Z,14.42
2022-09-01T21:28:06.728Z,14.38
2022-09-01T21:30:39.088Z,14.33
2022-09-01T21:33:11.621Z,14.27
2022-09-01T21:35:43.680Z,14.21
2022-09-01T21:38:15.610Z,14.17
2022-09-01T21:40:49.180Z,14.14
2022-09-01T21:43:23.904Z,14.12
2022-09-01T21:45:55.968Z,14.12
2022-09-01T21:48:28.934Z,14.10
2022-09-01T21:51:00.995Z,14.09
2022-09-01T21:53:33.030Z,14.09
2022-09-01T21:56:05.341Z,14.07
2022-09-01T21:58:39.968Z,14.05
2022-09-01T22:01:14.225Z,14.03
2022-09-01T22:03:46.427Z,14.02
2022-09-01T22:06:18.316Z,13.99
2022-09-01T22:08:50.406Z,13.98
2022-09-01T22:11:25.447Z,13.97
2022-09-01T22:14:00.341Z,13.96
2022-09-01T22:16:32.728Z,13.96
2022-09-01T22:19:04.820Z,13.94
2022-09-01T22:21:38.330Z,13.93
2022-09-01T22:24:10.749Z,13.90
2022-09-01T22:26:44.244Z,13.87
2022-09-01T22:29:18.727Z,13.84
2022-09-01T22:31:50.614Z,13.78
2022-09-01T22:34:22.621Z,13.72
2022-09-01T22:36:54.590Z,13.68
2022-09-01T22:39:26.561Z,13.64
2022-09-01T22:41:58.726Z,13.65
2022-09-01T22:44:30.530Z,13.66
2022-09-01T22:47:03.164Z,13.67
2022-09-01T22:49:35.177Z,13.68
2022-09-01T22:52:07.322Z,13.70
2022-09-01T22:54:40.725Z,13.70
2022-09-01T22:57:12.873Z,13.69
2022-09-01T22:59:44.915Z,13.66
2022-09-01T23:02:17.038Z,13.62
2022-09-01T23:04:50.245Z,13.58
2022-09-01T23:07:22.200Z,13.52
2022-09-01T23:09:54.244Z,13.47
2022-09-01T23:12:27.030Z,13.43
2022-09-01T23:14:58.969Z,13.41
2022-09-01T23:17:31.201Z,13.38
2022-09-01T23:20:03.251Z,13.36
2022-09-01T23:22:35.143Z,13.34
2022-09-01T23:25:09.990Z,13.30
2022-09-01T23:27:42.273Z,13.27
2022-09-01T23:30:16.763Z,13.26
2022-09-01T23:32:48.668Z,13.24
2022-09-01T23:35:20.767Z,13.21
2022-09-01T23:37:52.635Z,13.19
2022-09-01T23:40:24.850Z,13.17
2022-09-01T23:42:56.943Z,13.17
2022-09-01T23:45:29.849Z,13.14
2022-09-01T23:48:08.225Z,13.12
2022-09-01T23:50:45.857Z,13.10
2022-09-01T23:53:18.599Z,13.08
2022-09-01T23:55:52.681Z,13.06
2022-09-01T23:58:26.749Z,13.02
